Архив погоды в Кашире

Метеограмма Кашира
Пятница, 22 Июня
Время местн. Темп Ветер Видим Явления Облачность нижн/средн/верх Атм. давл. Влжн Точка росы ВНГО R Сост. почвы Tg s
Напр Скр Прв ур.ст ур.м изм
21:00 +24.2° штиль 0 - 10 км - переменная облачность 738 757 0 51% +13.3° более 2.5 км 0 - - -
18:00 +28.9° Ю-З 3 - 20 км - переменная облачность 738 757 -0.1 32% +10.6° более 2.5 км - - - -
15:00 +29.4° Ю,Ю-З 3 - 20 км - переменная облачность 738 757 -1.3 28% +9.2° более 2.5 км - - - -
12:00 +27.6° Ю 3 - 20 км - облачно с прояснениями 740 758 -0.7 35% +10.6° более 2.5 км - - - -
09:00 +24.5° Ю 2 - 20 км - облачно с прояснениями 740 759 -0.4 43% +11.2° более 2.5 км 0 Сухая (без трещин) +14° -
06:00 +15.9° Ю 1 - 20 км - переменная облачность 741 760 +0.1 76% +11.7° более 2.5 км - - - -
03:00 +14.9° Ю 1 - 10 км - ясно 741 760 -0.2 77% +10.9° более 2.5 км - - - -
00:00 +16.9° Ю-З 1 - 10 км - незначительная облачность 741 760 +0.5 68% +11° 1 км - - - -
Четверг, 21 Июня
Время местн. Темп Ветер Видим Явления Облачность нижн/средн/верх Атм. давл. Влжн Точка росы ВНГО R Сост. почвы Tg s
Напр Скр Прв ур.ст ур.м изм
21:00 +21.4° З 1 - 10 км - незначительная облачность 741 759 +0.5 50% +10.6° 1 км 0 - - -
18:00 +24.2° З 2 - 20 км - преимущественно облачно 740 759 +0.1 39% +9.3° 600 м - - - -
15:00 +24.8° З 4 - 20 км - переменная облачность 740 759 -0.5 34% +7.7° 1 км - - - -
12:00 +22.2° З 4 - 20 км - ясно 740 759 -0.8 33% +5.2° более 2.5 км - - - -
09:00 +19.1° З 3 - 20 км - ясно 741 760 +0.2 49% +8° более 2.5 км 0 Сухая (без трещин) - -
06:00 +14.2° З 2 - 20 км - ясно 741 760 +0.5 66% +7.9° более 2.5 км - - - -
03:00 +13.3° З 2 - 10 км - ясно 740 760 +0.5 68% +7.6° более 2.5 км - - - -
00:00 +15.1° З 1 - 10 км - ясно 740 759 +0.8 62% +7.9° более 2.5 км - - - -
Среда, 20 Июня
Время местн. Темп Ветер Видим Явления Облачность нижн/средн/верх Атм. давл. Влжн Точка росы ВНГО R Сост. почвы Tg s
Напр Скр Прв ур.ст ур.м изм
21:00 +18.7° З 2 12 10 км - переменная облачность 739 758 +0.5 45% +6.4° 1 км 0 - - -
18:00 +21.8° З 4 12 20 км - облачно с прояснениями 739 758 0 33% +4.8° 600 м - - - -
15:00 +22.2° З 5 12 20 км - переменная облачность 739 758 -0.8 31% +4.2° 1 км - - - -
12:00 +20.1° З,С-З 5 11 20 км - ясно 739 758 +0.2 31% +2.4° более 2.5 км - - - -
09:00 +17.7° З,С-З 5 10 20 км облака рассеиваются {ливневые осадки} переменная облачность 739 759 +1 47% +6.4° более 2.5 км 1 Влажная (без луж) +16° -
06:00 +17.1° З 4 - 10 км небо без изменений {ливневые осадки} облачно с прояснениями 738 757 +0.3 83% +14.2° 600 м - - - -
03:00 +17.3° З,Ю-З 2 - 10 км ливневый дождь преимущественно облачно 738 757 -0.6 87% +15.1° 600 м - - - -
00:00 +18.5° З,Ю-З 1 - 10 км - переменная облачность 739 758 -0.4 75% +14° более 2.5 км - - - -
Вторник, 19 Июня
Время местн. Темп Ветер Видим Явления Облачность нижн/средн/верх Атм. давл. Влжн Точка росы ВНГО R Сост. почвы Tg s
Напр Скр Прв ур.ст ур.м изм
21:00 +23° З,Ю-З 2 - 10 км небо без изменений {гроза} переменная облачность 739 758 -0.5 54% +13.1° 1 км 0.8 - - -
18:00 +25.8° З,Ю-З 3 - 20 км облака рассеиваются {гроза} переменная облачность 740 758 -1.4 43% +12.1° 1 км - - - -